Portada
METAR-TAF:

METAR-TAF

Aeroports :

Manta, Equador

latitud: 00-57S, longitud: 080-41W, altitud: 13 m

Observació

L'informe es va fer fa 14 minuts, a les 12:00 UTC
Vent 7 kt del Sud
Temperatura 22°C
Humitat 83%
Pressió 1014 hPa
Visibilitat 10 km o més
Cel ennuvolat a una alçada de 2000 ft

METAR: SEMT 241200Z 18007KT 9999 BKN020 22/19 Q1014 RMK A2996

Hora: 07:14 (12:14 UTC)

Pronòstic

L'informe es va fer fa 1 hora i 49 minuts, a les 10:25 UTC
Pronòstic vàlid del 24 a les 12 UTC al 25 a les 12 UTC
Vent 6 kt del Sud-Oest
Visibilitat 10 km o més
Cel cobert a una alçada de 1600 ft
Evolucionant progressivament
l' 24 a les 16 UTC al 24 a les 18 UTC
Vent 12 kt del Oest/Nord-Oest
Escasses núvols a una alçada de 2000 ft
Evolucionant progressivament
l' 25 a les 00 UTC al 25 a les 02 UTC
Vent 8 kt del Sud-Oest
Cel ennuvolat a una alçada de 2000 ft

TAF: SEMT 241025Z 2412/2512 22006KT 9999 OVC016 BECMG 2416/2418 30012KT FEW020 BECMG 2500/2502 22008KT BKN020 TX26/2420Z TN22/2510Z

Observacions i pronòstics meteorològics de més de 4000 aeroports (METAR i TAF).

Les estacions disponibles són els punts grocs i vermells al mapa.

Posi el ratolí al punt desitjat per veure el nom de l'estació.

Feu clic per veure les observacions i els pronòstics meteorològics.

Per canviar el mapa: feu clic els botons verds amb una creu de color negre per apropar; al botó verd amb un guió per allunyar la imatge; o en les fletxes verdes per a mapes adjacents.


METAR-TAF: